Time;durP1;ratioP1;P1;durP2;ratioP2;P2;SDS_P1;SDS_P2;PMS_P1;PMS_P2;Temp;Humidity;BMP_temperature;BMP_pressure;BME280_temperature;BME280_humidity;BME280_pressure;Samples;Min_cycle;Max_cycle;Signal;HPM_P1;HPM_P2
2022/06/18 00:01:06;;;;;;;12.85;6.20;;;17.60;99.90;;;;;;4995504;28;20214;-67
2022/06/18 00:03:55;;;;;;;15.15;6.68;;;17.60;99.90;;;;;;4995172;28;20225;-66
2022/06/18 00:06:49;;;;;;;12.30;6.47;;;17.60;99.90;;;;;;4996858;28;20321;-67
2022/06/18 00:09:42;;;;;;;10.82;6.70;;;17.60;99.90;;;;;;4995934;28;20238;-67
2022/06/18 00:15:41;;;;;;;10.52;6.85;;;17.60;99.90;;;;;;4999235;28;20221;-66
2022/06/18 00:18:33;;;;;;;13.90;7.15;;;17.60;99.90;;;;;;4994372;28;21015;-67
2022/06/18 00:21:25;;;;;;;9.88;7.15;;;17.50;99.90;;;;;;4997882;28;20283;-67
2022/06/18 00:24:17;;;;;;;14.48;7.05;;;17.50;99.90;;;;;;4996747;28;20234;-67
2022/06/18 00:27:09;;;;;;;10.68;7.95;;;17.40;99.90;;;;;;4998157;28;20237;-67
2022/06/18 00:29:58;;;;;;;11.50;8.13;;;17.40;99.90;;;;;;4996196;28;20227;-66
2022/06/18 00:32:48;;;;;;;13.10;6.95;;;17.40;99.90;;;;;;4992526;28;20875;-66
2022/06/18 00:35:37;;;;;;;12.13;7.60;;;17.30;99.90;;;;;;4993267;28;20233;-66
2022/06/18 00:38:28;;;;;;;11.27;8.00;;;17.30;99.90;;;;;;4990716;28;20307;-66
2022/06/18 00:41:20;;;;;;;10.27;6.80;;;17.30;99.90;;;;;;4995297;28;20229;-66
2022/06/18 00:44:24;;;;;;;11.32;7.30;;;17.30;99.90;;;;;;4996777;28;20218;-67
2022/06/18 00:47:21;;;;;;;12.93;7.53;;;17.20;99.90;;;;;;4994216;28;22454;-67
2022/06/18 00:50:17;;;;;;;10.52;7.05;;;17.20;99.90;;;;;;4999083;28;20661;-66
2022/06/18 00:53:12;;;;;;;12.18;6.80;;;17.30;99.90;;;;;;5012131;28;20218;-67
2022/06/18 00:56:09;;;;;;;9.23;6.25;;;17.20;99.90;;;;;;4996806;28;20222;-66
2022/06/18 00:59:01;;;;;;;12.10;7.03;;;17.10;99.90;;;;;;4998167;28;20222;-66
2022/06/18 01:01:53;;;;;;;15.73;7.22;;;17.10;99.90;;;;;;4993797;28;20328;-65
2022/06/18 01:04:42;;;;;;;13.05;6.50;;;17.10;99.90;;;;;;4998920;28;20229;-66
2022/06/18 01:07:34;;;;;;;9.50;6.53;;;17.10;99.90;;;;;;4994035;28;20962;-66
2022/06/18 01:10:29;;;;;;;10.25;7.05;;;17.20;99.90;;;;;;4992252;28;20226;-66
2022/06/18 01:13:24;;;;;;;10.68;6.72;;;17.20;99.90;;;;;;4994334;28;20317;-65
2022/06/18 01:16:16;;;;;;;10.13;7.00;;;17.20;99.90;;;;;;4994212;28;20671;-66
2022/06/18 01:19:11;;;;;;;9.63;6.40;;;17.20;99.90;;;;;;4995475;28;20260;-68
2022/06/18 01:22:10;;;;;;;9.88;6.65;;;17.20;99.90;;;;;;4994794;28;20229;-68
2022/06/18 01:25:05;;;;;;;10.40;6.72;;;17.10;99.90;;;;;;4998977;28;20681;-66
2022/06/18 01:27:56;;;;;;;10.88;6.88;;;17.10;99.90;;;;;;4999181;28;20221;-67
2022/06/18 01:30:54;;;;;;;12.82;6.90;;;17.00;99.90;;;;;;4998584;28;20250;-66
2022/06/18 01:33:43;;;;;;;10.90;6.53;;;17.00;99.90;;;;;;4997676;28;20215;-67
2022/06/18 01:36:35;;;;;;;11.23;7.00;;;16.90;99.90;;;;;;4997138;28;20303;-67
2022/06/18 01:39:27;;;;;;;8.98;6.75;;;16.90;99.90;;;;;;4997024;28;20986;-67
2022/06/18 01:42:26;;;;;;;11.07;7.13;;;16.90;99.90;;;;;;5008444;28;20334;-68
2022/06/18 01:45:19;;;;;;;9.55;6.88;;;16.90;99.90;;;;;;4994785;28;20572;-66
2022/06/18 01:48:16;;;;;;;7.65;6.20;;;16.80;99.90;;;;;;5009593;28;20292;-66
2022/06/18 01:51:10;;;;;;;11.38;7.05;;;16.90;99.90;;;;;;4990044;28;20310;-69
2022/06/18 01:54:05;;;;;;;11.13;6.72;;;16.80;99.90;;;;;;5004289;28;20222;-66
2022/06/18 01:57:00;;;;;;;7.53;6.10;;;16.80;99.90;;;;;;4959704;28;20369;-65
2022/06/18 01:59:57;;;;;;;7.97;6.28;;;16.70;99.90;;;;;;4982089;28;20307;-66
2022/06/18 02:03:02;;;;;;;10.82;6.80;;;16.70;99.90;;;;;;4996812;28;20281;-66
2022/06/18 02:05:51;;;;;;;9.10;6.70;;;16.70;99.90;;;;;;4986504;28;20281;-65
2022/06/18 02:08:44;;;;;;;11.18;6.47;;;16.70;99.90;;;;;;4983516;28;20360;-66
2022/06/18 02:11:36;;;;;;;10.98;6.95;;;16.70;99.90;;;;;;4990961;28;20235;-65
2022/06/18 02:14:33;;;;;;;11.63;6.68;;;16.60;99.90;;;;;;4995183;28;20225;-67
2022/06/18 02:17:27;;;;;;;9.57;7.05;;;16.60;99.90;;;;;;4996668;28;20298;-65
2022/06/18 02:20:20;;;;;;;9.63;6.45;;;16.60;99.90;;;;;;4996804;28;20237;-67
2022/06/18 02:23:09;;;;;;;8.95;6.40;;;16.70;99.90;;;;;;4991325;28;20247;-67
2022/06/18 02:25:57;;;;;;;9.85;6.63;;;16.70;99.90;;;;;;4996375;28;20269;-66
2022/06/18 02:28:47;;;;;;;9.48;6.95;;;16.60;99.90;;;;;;4996687;28;20249;-66
2022/06/18 02:31:36;;;;;;;11.90;6.55;;;16.60;99.90;;;;;;4991005;28;20222;-67
2022/06/18 02:34:29;;;;;;;8.40;6.88;;;16.70;99.90;;;;;;4993202;28;21023;-65
2022/06/18 02:37:23;;;;;;;8.65;6.22;;;16.70;99.90;;;;;;4994311;28;20230;-65
2022/06/18 02:40:18;;;;;;;9.55;6.80;;;16.60;99.90;;;;;;4993044;28;20662;-66
2022/06/18 02:43:07;;;;;;;10.75;6.25;;;16.70;99.90;;;;;;4980315;28;20256;-66
2022/06/18 02:45:57;;;;;;;7.68;6.28;;;16.60;99.90;;;;;;4979137;28;20222;-65
2022/06/18 02:48:46;;;;;;;9.07;6.05;;;16.60;99.90;;;;;;4980800;28;20233;-65
2022/06/18 02:51:37;;;;;;;9.60;6.18;;;16.70;99.90;;;;;;4965583;28;20214;-65
2022/06/18 02:54:29;;;;;;;8.93;6.70;;;16.70;99.90;;;;;;4977727;28;20284;-66
2022/06/18 02:57:27;;;;;;;9.30;5.95;;;16.70;99.90;;;;;;4972575;28;20230;-65
2022/06/18 03:00:16;;;;;;;7.75;5.68;;;16.80;99.90;;;;;;4959166;28;20223;-65
2022/06/18 03:03:07;;;;;;;10.00;6.05;;;16.90;99.90;;;;;;4976270;28;20226;-66
2022/06/18 03:05:56;;;;;;;7.32;5.95;;;16.90;99.90;;;;;;4973582;28;20231;-66
2022/06/18 03:08:49;;;;;;;8.50;6.25;;;17.00;99.90;;;;;;4965456;28;20815;-66
2022/06/18 03:14:46;;;;;;;10.15;6.43;;;17.00;99.90;;;;;;4971204;28;20233;-67
2022/06/18 03:17:39;;;;;;;12.90;6.47;;;17.10;99.90;;;;;;4973679;28;20898;-67
2022/06/18 03:20:49;;;;;;;6.80;5.95;;;17.10;99.90;;;;;;4970158;28;20633;-66
2022/06/18 03:23:39;;;;;;;8.57;6.68;;;17.20;99.90;;;;;;4975023;28;20677;-66
2022/06/18 03:26:30;;;;;;;8.30;5.75;;;17.20;99.90;;;;;;4976678;28;20226;-66
2022/06/18 03:29:20;;;;;;;10.20;6.18;;;17.40;99.90;;;;;;4972530;28;20973;-65
2022/06/18 03:32:09;;;;;;;10.20;6.82;;;17.40;99.90;;;;;;4970550;28;20220;-66
2022/06/18 03:34:58;;;;;;;8.27;6.13;;;17.40;99.90;;;;;;4974197;28;20807;-67
2022/06/18 03:37:46;;;;;;;7.70;5.72;;;17.40;99.90;;;;;;4969296;28;20307;-69
2022/06/18 03:40:36;;;;;;;7.78;5.90;;;17.40;99.90;;;;;;4975028;28;20222;-67
2022/06/18 03:43:28;;;;;;;7.75;6.35;;;17.50;99.90;;;;;;4966219;28;20388;-67
2022/06/18 03:46:18;;;;;;;7.40;6.00;;;17.50;99.90;;;;;;4970239;28;20330;-67
2022/06/18 03:49:08;;;;;;;8.27;6.00;;;17.40;99.90;;;;;;4969218;28;20320;-67
2022/06/18 03:51:59;;;;;;;6.40;5.20;;;17.50;99.90;;;;;;4982714;28;20231;-66
2022/06/18 03:54:51;;;;;;;6.53;4.80;;;17.50;99.90;;;;;;4972766;28;20309;-66
2022/06/18 03:57:40;;;;;;;8.02;5.10;;;17.60;99.90;;;;;;4969900;28;20220;-66
2022/06/18 04:00:33;;;;;;;9.13;5.15;;;17.70;99.90;;;;;;4971223;28;20227;-66
2022/06/18 04:03:22;;;;;;;9.40;4.90;;;17.80;99.90;;;;;;4955586;28;20381;-66
2022/06/18 04:06:14;;;;;;;6.28;4.90;;;17.90;99.90;;;;;;4969141;28;20647;-65
2022/06/18 04:09:05;;;;;;;8.35;4.70;;;18.10;99.90;;;;;;4971985;28;20640;-66
2022/06/18 04:11:54;;;;;;;5.85;3.92;;;18.10;99.90;;;;;;4976205;28;20234;-67
2022/06/18 04:14:43;;;;;;;6.35;4.03;;;18.10;99.90;;;;;;4969244;28;20915;-67
2022/06/18 04:17:38;;;;;;;8.65;4.35;;;18.00;99.90;;;;;;4989244;28;20229;-67
2022/06/18 04:20:30;;;;;;;6.38;4.68;;;18.00;99.90;;;;;;4994939;28;20230;-67
2022/06/18 04:23:20;;;;;;;8.55;3.90;;;18.10;99.90;;;;;;4997813;28;20226;-67
2022/06/18 04:26:11;;;;;;;10.73;4.07;;;18.10;99.90;;;;;;4995261;28;20307;-67
2022/06/18 04:29:05;;;;;;;7.10;4.40;;;18.30;99.90;;;;;;4999906;28;20605;-67
2022/06/18 04:31:59;;;;;;;4.70;3.78;;;18.40;99.90;;;;;;4997440;28;20229;-67
2022/06/18 04:34:55;;;;;;;5.30;3.60;;;18.50;99.90;;;;;;4991523;28;20230;-67
2022/06/18 04:37:58;;;;;;;5.68;3.47;;;18.70;99.90;;;;;;4995414;28;20233;-68
2022/06/18 04:41:00;;;;;;;6.18;3.35;;;18.90;99.90;;;;;;4994840;28;20218;-67
2022/06/18 04:43:59;;;;;;;5.30;3.70;;;19.00;99.90;;;;;;4994530;28;20237;-67
2022/06/18 04:46:50;;;;;;;4.32;3.22;;;19.20;99.90;;;;;;4997592;28;20378;-67
2022/06/18 04:49:39;;;;;;;3.55;3.00;;;19.30;99.90;;;;;;4998462;28;20334;-68
2022/06/18 04:52:32;;;;;;;12.38;3.38;;;19.40;99.90;;;;;;5001644;28;20227;-67
2022/06/18 04:55:23;;;;;;;4.45;2.67;;;19.30;99.90;;;;;;4998907;28;20229;-68
2022/06/18 04:58:12;;;;;;;3.45;3.00;;;19.40;99.90;;;;;;4998912;28;20262;-68
2022/06/18 05:01:07;;;;;;;5.28;3.25;;;19.50;99.90;;;;;;5010066;28;20734;-69
2022/06/18 05:04:19;;;;;;;3.22;2.75;;;19.60;99.90;;;;;;4997137;28;20229;-66
2022/06/18 05:07:27;;;;;;;5.00;3.28;;;19.60;99.90;;;;;;4993774;28;20293;-66
2022/06/18 05:10:47;;;;;;;4.07;3.10;;;19.60;99.90;;;;;;4999244;28;20329;-68
2022/06/18 05:13:46;;;;;;;3.80;2.97;;;19.70;99.90;;;;;;5010733;28;20225;-69
2022/06/18 05:16:50;;;;;;;6.07;3.10;;;19.70;99.90;;;;;;5011350;28;20899;-66
2022/06/18 05:19:39;;;;;;;5.53;3.17;;;19.80;99.90;;;;;;5000107;28;20226;-67
2022/06/18 05:22:28;;;;;;;3.97;3.50;;;19.90;99.90;;;;;;4997681;28;20229;-68
2022/06/18 05:25:25;;;;;;;3.88;3.28;;;19.90;99.90;;;;;;4988023;28;20303;-67
2022/06/18 05:28:16;;;;;;;5.75;3.15;;;19.90;99.90;;;;;;4994921;28;20303;-67
2022/06/18 05:31:05;;;;;;;4.80;3.22;;;20.00;99.90;;;;;;4990460;28;20321;-69
2022/06/18 05:33:54;;;;;;;5.57;2.95;;;20.10;99.90;;;;;;4999426;28;20284;-66
2022/06/18 05:36:43;;;;;;;4.47;2.72;;;20.00;99.90;;;;;;4998024;28;20334;-69
2022/06/18 05:39:32;;;;;;;3.78;3.00;;;20.10;99.90;;;;;;4982108;28;20320;-68
2022/06/18 05:42:21;;;;;;;3.47;2.30;;;20.20;99.90;;;;;;4982380;28;20226;-66
2022/06/18 05:45:12;;;;;;;4.57;2.53;;;20.30;99.90;;;;;;4991954;28;20226;-68
2022/06/18 05:48:00;;;;;;;5.07;2.60;;;20.40;99.90;;;;;;4998220;28;20314;-68
2022/06/18 05:50:49;;;;;;;6.63;2.60;;;20.50;99.90;;;;;;4962362;28;20227;-66
2022/06/18 05:53:38;;;;;;;5.28;2.80;;;20.60;99.90;;;;;;4963412;28;20281;-66
2022/06/18 05:56:57;;;;;;;3.92;2.80;;;20.80;99.90;;;;;;4995015;28;20239;-67
2022/06/18 05:59:53;;;;;;;2.75;2.50;;;20.90;99.90;;;;;;4970719;28;20261;-66
2022/06/18 06:02:44;;;;;;;5.85;2.30;;;21.00;99.90;;;;;;4984241;28;20244;-68
2022/06/18 06:05:33;;;;;;;3.22;2.67;;;21.00;99.90;;;;;;4984279;28;20261;-67
2022/06/18 06:08:23;;;;;;;2.83;2.53;;;21.00;99.90;;;;;;4978182;28;20748;-67
2022/06/18 06:11:29;;;;;;;5.20;2.70;;;21.20;99.90;;;;;;4982839;28;20222;-68
2022/06/18 06:14:28;;;;;;;6.72;2.88;;;21.40;99.90;;;;;;4982766;28;20272;-68
2022/06/18 06:17:22;;;;;;;4.45;2.67;;;21.60;99.90;;;;;;4995468;28;20231;-67
2022/06/18 06:20:24;;;;;;;5.05;2.47;;;21.70;99.90;;;;;;4984803;28;20221;-66
2022/06/18 06:23:14;;;;;;;6.88;2.60;;;21.90;99.90;;;;;;4976279;28;20834;-66
2022/06/18 06:26:03;;;;;;;4.28;2.50;;;22.60;99.90;;;;;;4979356;28;20226;-66
2022/06/18 06:28:52;;;;;;;3.38;2.40;;;24.20;99.90;;;;;;4979846;28;20223;-65
2022/06/18 06:31:40;;;;;;;4.20;2.30;;;24.40;99.20;;;;;;4988731;28;20223;-68
2022/06/18 06:34:29;;;;;;;5.50;2.40;;;23.80;98.20;;;;;;4982210;28;20230;-67
2022/06/18 06:37:19;;;;;;;4.28;2.67;;;23.40;99.60;;;;;;4977002;28;20312;-66
2022/06/18 06:40:14;;;;;;;5.20;2.45;;;23.20;99.90;;;;;;4973923;28;20231;-69
2022/06/18 06:43:03;;;;;;;5.18;2.42;;;23.00;99.90;;;;;;4974109;28;20224;-68
2022/06/18 06:45:52;;;;;;;2.92;2.20;;;23.00;99.90;;;;;;4998158;28;20222;-67
2022/06/18 06:48:40;;;;;;;3.85;2.20;;;23.10;99.90;;;;;;5000027;28;20293;-67
2022/06/18 06:51:32;;;;;;;3.28;2.38;;;23.00;99.90;;;;;;4993652;28;20234;-68
2022/06/18 06:54:27;;;;;;;6.07;2.20;;;23.00;99.90;;;;;;4998688;28;20222;-67
2022/06/18 06:57:24;;;;;;;5.43;2.17;;;22.90;99.90;;;;;;4996219;28;20237;-68
2022/06/18 07:00:13;;;;;;;3.22;2.17;;;22.80;99.90;;;;;;4998024;28;20249;-70
2022/06/18 07:03:06;;;;;;;3.00;2.00;;;22.90;99.90;;;;;;4998168;28;20222;-67
2022/06/18 07:05:58;;;;;;;6.60;2.45;;;23.20;99.90;;;;;;4989991;28;20234;-65
2022/06/18 07:08:47;;;;;;;7.22;2.42;;;23.40;99.90;;;;;;4995469;28;20229;-66
2022/06/18 07:11:39;;;;;;;3.30;2.22;;;23.70;99.10;;;;;;4996423;28;20230;-71
2022/06/18 07:14:27;;;;;;;6.75;2.20;;;23.90;98.10;;;;;;4997970;28;20226;-65
2022/06/18 07:17:18;;;;;;;4.85;2.40;;;24.30;97.00;;;;;;4997077;28;20249;-64
2022/06/18 07:20:13;;;;;;;4.90;2.30;;;24.40;95.00;;;;;;4997897;28;20273;-66
2022/06/18 07:23:02;;;;;;;4.90;2.22;;;24.60;94.20;;;;;;4997487;28;20234;-68
2022/06/18 07:25:50;;;;;;;4.45;2.50;;;24.70;92.20;;;;;;4998410;28;20222;-66
2022/06/18 07:28:40;;;;;;;4.85;2.30;;;25.10;91.60;;;;;;4995751;28;20244;-65
2022/06/18 07:31:32;;;;;;;4.45;2.45;;;25.50;91.30;;;;;;4997788;28;20223;-66
2022/06/18 07:34:20;;;;;;;4.05;2.55;;;25.70;90.70;;;;;;4996372;28;20227;-66
2022/06/18 07:37:09;;;;;;;7.05;2.75;;;25.90;91.10;;;;;;4997952;28;20234;-65
2022/06/18 07:39:57;;;;;;;3.00;2.70;;;25.90;90.00;;;;;;5005179;28;20334;-64
2022/06/18 07:42:47;;;;;;;4.90;2.50;;;26.10;90.80;;;;;;4996948;28;20562;-65
2022/06/18 07:45:37;;;;;;;3.63;2.67;;;25.90;90.50;;;;;;4970167;28;20223;-65
2022/06/18 07:48:26;;;;;;;2.70;2.50;;;26.00;85.20;;;;;;4985189;28;20241;-66
2022/06/18 07:51:15;;;;;;;6.13;2.78;;;25.90;82.50;;;;;;4976144;28;20223;-65
2022/06/18 07:54:04;;;;;;;5.45;2.60;;;25.70;81.90;;;;;;4985145;28;20252;-65
2022/06/18 07:56:52;;;;;;;6.20;3.92;;;25.70;86.90;;;;;;4982371;28;20354;-66
2022/06/18 07:59:41;;;;;;;5.72;2.95;;;25.90;86.40;;;;;;4975512;28;20227;-66
2022/06/18 08:02:31;;;;;;;5.60;2.78;;;26.00;85.70;;;;;;4972255;28;20230;-66
2022/06/18 08:05:23;;;;;;;3.63;2.53;;;26.20;83.20;;;;;;4975492;28;21019;-66
2022/06/18 08:08:12;;;;;;;3.00;2.40;;;26.10;81.20;;;;;;4988185;28;20246;-66
2022/06/18 08:11:21;;;;;;;4.18;2.50;;;25.90;84.40;;;;;;4973880;28;20844;-66
2022/06/18 08:14:11;;;;;;;6.03;2.78;;;25.80;85.50;;;;;;4970099;28;20476;-66
2022/06/18 08:17:00;;;;;;;4.03;2.85;;;25.80;84.40;;;;;;4972814;28;20230;-66
2022/06/18 08:19:50;;;;;;;7.40;2.50;;;25.90;83.80;;;;;;4990369;28;20227;-65
2022/06/18 08:22:47;;;;;;;3.50;2.53;;;25.90;82.60;;;;;;4986554;28;20238;-65
2022/06/18 08:25:41;;;;;;;6.78;3.00;;;26.10;83.90;;;;;;4978761;28;20242;-65
2022/06/18 08:28:36;;;;;;;5.35;3.05;;;26.10;82.40;;;;;;4978370;28;20234;-65
2022/06/18 08:31:29;;;;;;;5.03;2.58;;;25.90;87.00;;;;;;4981927;28;20236;-66
2022/06/18 08:34:23;;;;;;;5.70;2.70;;;25.80;86.70;;;;;;4980950;28;20222;-65
2022/06/18 08:37:19;;;;;;;3.10;2.38;;;25.70;84.50;;;;;;4983583;28;20234;-66
2022/06/18 08:43:59;;;;;;;3.58;2.30;;;25.50;77.70;;;;;;4988324;28;20253;-66
2022/06/18 08:46:57;;;;;;;9.95;4.30;;;25.20;76.50;;;;;;4984240;28;20226;-66
2022/06/18 08:50:11;;;;;;;4.18;2.50;;;25.20;77.70;;;;;;4996154;28;20222;-66
2022/06/18 08:53:29;;;;;;;4.40;3.00;;;25.20;75.70;;;;;;4980899;28;20218;-67
2022/06/18 08:56:26;;;;;;;12.25;5.07;;;25.40;75.00;;;;;;4997857;28;20223;-67
2022/06/18 08:59:30;;;;;;;3.60;2.90;;;25.50;76.60;;;;;;4999057;28;20390;-66
2022/06/18 09:02:26;;;;;;;19.67;5.05;;;25.70;79.10;;;;;;4981701;28;20240;-66
2022/06/18 09:05:23;;;;;;;9.98;2.60;;;25.80;78.60;;;;;;4998910;28;20226;-65
2022/06/18 09:08:37;;;;;;;6.13;2.72;;;25.80;75.30;;;;;;4998871;28;20306;-66
2022/06/18 09:11:39;;;;;;;6.10;2.72;;;25.70;75.60;;;;;;4997577;28;20241;-66
2022/06/18 09:14:34;;;;;;;7.07;3.28;;;25.60;76.00;;;;;;4997256;28;20251;-66
2022/06/18 09:17:28;;;;;;;4.90;2.92;;;25.50;75.50;;;;;;4981255;28;20222;-66
2022/06/18 09:20:23;;;;;;;6.25;2.90;;;25.40;78.20;;;;;;4997671;28;20987;-65
2022/06/18 09:23:16;;;;;;;5.75;4.18;;;25.50;79.10;;;;;;4984019;28;20538;-67
2022/06/18 09:26:11;;;;;;;6.40;3.33;;;25.50;79.40;;;;;;4997621;28;20569;-67
2022/06/18 09:29:11;;;;;;;6.32;3.05;;;25.70;80.00;;;;;;4995244;28;20232;-68
2022/06/18 09:32:05;;;;;;;3.13;2.70;;;25.90;81.50;;;;;;4992893;28;20597;-68
2022/06/18 09:35:01;;;;;;;6.95;3.25;;;27.00;76.50;;;;;;4993032;28;20234;-66
2022/06/18 09:37:54;;;;;;;5.70;2.63;;;28.60;69.70;;;;;;4989723;28;20234;-66
2022/06/18 09:40:49;;;;;;;7.50;3.80;;;27.70;70.20;;;;;;4975955;28;20314;-65
2022/06/18 09:43:46;;;;;;;6.22;3.00;;;27.20;73.10;;;;;;4995363;28;20341;-66
2022/06/18 09:46:38;;;;;;;5.00;2.92;;;27.00;70.10;;;;;;4995073;28;20582;-67
2022/06/18 09:49:28;;;;;;;3.95;2.95;;;27.80;69.20;;;;;;4999140;28;20360;-66
2022/06/18 09:52:25;;;;;;;5.07;2.83;;;27.70;72.90;;;;;;4987792;28;20948;-67
2022/06/18 09:55:18;;;;;;;4.85;2.85;;;27.50;66.50;;;;;;4994906;28;20236;-67
2022/06/18 09:58:14;;;;;;;4.13;2.50;;;27.90;66.50;;;;;;4989216;28;20227;-69
2022/06/18 10:01:05;;;;;;;4.75;3.20;;;28.00;64.60;;;;;;4980550;28;20252;-67
2022/06/18 10:07:04;;;;;;;4.25;2.40;;;29.20;66.80;;;;;;4991584;28;20722;-66
2022/06/18 10:10:03;;;;;;;2.97;2.40;;;29.00;63.10;;;;;;4997193;28;20254;-66
2022/06/18 10:12:54;;;;;;;3.42;3.10;;;28.50;66.00;;;;;;4991944;28;20263;-67
2022/06/18 10:15:42;;;;;;;4.18;2.78;;;29.10;63.00;;;;;;4977568;28;20714;-66
2022/06/18 10:18:46;;;;;;;8.05;2.53;;;29.00;62.50;;;;;;4978153;28;20732;-67
2022/06/18 10:21:42;;;;;;;5.43;3.92;;;29.00;63.00;;;;;;4996733;28;20228;-67
2022/06/18 10:24:37;;;;;;;3.80;2.60;;;30.60;64.30;;;;;;4997400;28;20248;-66
2022/06/18 10:27:34;;;;;;;3.38;2.92;;;32.40;58.50;;;;;;5001227;28;20467;-66
2022/06/18 10:30:33;;;;;;;7.97;3.97;;;34.10;54.70;;;;;;4998322;28;20259;-66
2022/06/18 10:33:31;;;;;;;2.90;2.45;;;35.10;53.40;;;;;;4995620;28;20214;-66
2022/06/18 10:36:33;;;;;;;4.35;2.55;;;35.00;50.70;;;;;;4978714;28;20744;-66
2022/06/18 10:39:27;;;;;;;4.78;2.58;;;35.20;50.50;;;;;;4998566;28;20228;-66
2022/06/18 10:42:28;;;;;;;4.07;2.20;;;34.10;50.80;;;;;;4993040;28;20223;-68
2022/06/18 10:45:24;;;;;;;6.28;2.83;;;32.90;52.20;;;;;;4978893;28;20233;-65
2022/06/18 10:48:15;;;;;;;4.05;2.30;;;31.60;57.20;;;;;;4999047;28;20417;-67
2022/06/18 10:51:04;;;;;;;5.30;2.20;;;30.90;56.70;;;;;;4996626;28;20222;-67
2022/06/18 10:53:56;;;;;;;2.88;2.45;;;30.50;55.90;;;;;;4979672;28;20229;-67
2022/06/18 10:56:51;;;;;;;6.22;2.85;;;29.80;57.20;;;;;;4981311;28;20226;-66
2022/06/18 10:59:40;;;;;;;6.47;2.80;;;30.10;57.90;;;;;;4981310;28;20218;-67
2022/06/18 11:02:35;;;;;;;5.43;2.53;;;30.20;60.40;;;;;;4994939;28;20233;-67
2022/06/18 11:05:29;;;;;;;5.60;2.75;;;30.10;57.30;;;;;;4994850;28;20316;-64
2022/06/18 11:08:22;;;;;;;4.05;2.53;;;29.70;57.90;;;;;;4976175;28;20229;-66
2022/06/18 11:11:24;;;;;;;3.88;2.45;;;29.90;60.90;;;;;;4995555;28;20240;-65
2022/06/18 11:14:16;;;;;;;4.80;2.50;;;29.60;58.80;;;;;;4995496;28;20222;-66
2022/06/18 11:17:23;;;;;;;6.22;2.55;;;29.70;58.30;;;;;;4992994;28;20306;-67
2022/06/18 11:20:20;;;;;;;6.82;2.42;;;30.50;60.20;;;;;;4971208;28;20218;-67
2022/06/18 11:23:16;;;;;;;4.32;2.17;;;30.60;56.60;;;;;;4976168;28;20316;-65
2022/06/18 11:26:10;;;;;;;3.00;2.40;;;30.30;56.80;;;;;;4978364;28;20955;-65
2022/06/18 11:29:04;;;;;;;2.78;2.50;;;30.80;55.60;;;;;;4975847;28;20841;-65
2022/06/18 11:31:56;;;;;;;10.85;2.97;;;30.40;56.80;;;;;;4984264;28;20315;-63
2022/06/18 11:34:49;;;;;;;3.20;2.33;;;30.10;57.40;;;;;;4986172;28;20232;-65
2022/06/18 11:37:38;;;;;;;2.65;2.15;;;29.60;57.70;;;;;;4990453;28;20248;-66
2022/06/18 11:40:27;;;;;;;4.45;2.47;;;30.50;56.60;;;;;;4983018;28;20232;-64
2022/06/18 11:43:31;;;;;;;5.63;2.33;;;31.10;55.80;;;;;;4976827;28;20546;-66
2022/06/18 11:46:27;;;;;;;4.82;2.20;;;31.60;54.80;;;;;;4975967;28;20233;-66
2022/06/18 11:49:20;;;;;;;2.35;2.15;;;35.10;51.90;;;;;;4962767;28;21988;-66
2022/06/18 11:52:14;;;;;;;2.67;1.92;;;34.40;49.90;;;;;;4972867;28;20226;-65
2022/06/18 11:55:17;;;;;;;3.28;2.22;;;32.70;52.10;;;;;;4978268;28;20222;-65
2022/06/18 11:58:12;;;;;;;3.75;2.42;;;32.60;53.80;;;;;;4976704;28;20227;-65
2022/06/18 12:01:11;;;;;;;3.88;1.73;;;33.30;52.40;;;;;;4975552;28;20226;-65
2022/06/18 12:04:10;;;;;;;5.65;2.85;;;35.20;50.10;;;;;;4973441;28;20225;-66
2022/06/18 12:07:05;;;;;;;4.68;2.13;;;37.60;47.10;;;;;;4994982;28;20221;-66
2022/06/18 12:09:54;;;;;;;5.32;2.22;;;38.90;45.50;;;;;;4982329;28;20225;-67
2022/06/18 12:12:59;;;;;;;4.95;2.28;;;39.20;44.10;;;;;;4975506;28;20222;-66
2022/06/18 12:15:52;;;;;;;3.72;2.15;;;39.10;43.60;;;;;;4967096;28;20230;-66
2022/06/18 12:18:44;;;;;;;2.38;2.08;;;;;;;;;;4998732;28;20237;-66
2022/06/18 12:21:44;;;;;;;3.88;2.28;;;39.50;42.90;;;;;;4998248;28;20233;-67
2022/06/18 12:24:40;;;;;;;6.07;2.20;;;39.10;43.70;;;;;;4999079;28;20222;-66
2022/06/18 12:27:30;;;;;;;5.63;2.00;;;39.30;44.50;;;;;;4996453;28;20233;-66
2022/06/18 12:30:23;;;;;;;6.20;2.13;;;39.30;43.10;;;;;;4993898;28;20693;-67
2022/06/18 12:33:23;;;;;;;2.85;2.05;;;39.00;42.80;;;;;;4997267;28;20229;-67
2022/06/18 12:36:16;;;;;;;2.00;1.70;;;37.40;43.40;;;;;;4997531;28;20717;-66
2022/06/18 12:39:15;;;;;;;7.53;2.05;;;35.10;44.40;;;;;;4987043;28;20226;-66
2022/06/18 12:42:15;;;;;;;3.90;2.30;;;34.00;48.30;;;;;;4997399;28;20725;-67
2022/06/18 12:45:18;;;;;;;7.32;3.08;;;34.00;49.00;;;;;;4993947;28;20240;-66
2022/06/18 12:48:14;;;;;;;4.82;2.00;;;33.60;49.30;;;;;;5001335;28;20232;-67
2022/06/18 12:51:08;;;;;;;6.13;3.75;;;33.80;49.50;;;;;;5010660;28;20275;-67
2022/06/18 12:54:23;;;;;;;3.05;1.92;;;33.60;50.80;;;;;;4996123;28;20379;-68
2022/06/18 12:57:22;;;;;;;3.42;2.10;;;33.20;49.80;;;;;;4994989;28;20596;-67
2022/06/18 13:00:14;;;;;;;5.05;2.13;;;31.90;50.90;;;;;;4993952;28;20245;-66
2022/06/18 13:03:29;;;;;;;6.63;2.75;;;31.10;52.80;;;;;;4995484;28;20228;-66
2022/06/18 13:06:27;;;;;;;3.65;2.60;;;31.00;54.00;;;;;;4996085;28;20557;-66
2022/06/18 13:09:24;;;;;;;9.77;3.60;;;30.70;54.80;;;;;;5015703;28;20622;-65
2022/06/18 13:12:27;;;;;;;3.90;2.90;;;30.50;56.20;;;;;;5000467;28;20233;-66
2022/06/18 13:15:28;;;;;;;5.45;2.40;;;30.20;58.10;;;;;;4999571;28;20276;-66
2022/06/18 13:18:23;;;;;;;2.80;2.60;;;30.10;57.40;;;;;;4998357;28;20611;-66
2022/06/18 13:21:12;;;;;;;5.20;2.50;;;29.90;56.30;;;;;;4997066;28;20309;-69
2022/06/18 13:30:30;;;;;;;5.68;2.60;;;28.90;56.40;;;;;;4990995;28;20233;-72
2022/06/18 13:33:36;;;;;;;3.60;2.72;;;28.80;59.10;;;;;;4997706;28;21794;-72
2022/06/18 13:36:37;;;;;;;5.35;2.75;;;28.70;58.90;;;;;;5011961;28;20248;-73
2022/06/18 13:39:35;;;;;;;4.18;2.40;;;28.60;59.60;;;;;;4997615;28;20234;-74
2022/06/18 13:42:31;;;;;;;4.32;2.92;;;28.60;59.20;;;;;;5000546;28;20316;-73
2022/06/18 13:45:51;;;;;;;3.28;2.85;;;28.40;59.60;;;;;;4997342;28;20391;-75
2022/06/18 13:48:53;;;;;;;7.07;3.42;;;28.60;60.90;;;;;;4998798;28;20257;-73
2022/06/18 13:51:43;;;;;;;3.58;3.00;;;28.50;61.10;;;;;;4998545;28;20253;-73
2022/06/18 13:54:41;;;;;;;4.00;2.60;;;28.30;62.50;;;;;;4995978;28;20234;-71
2022/06/18 13:57:38;;;;;;;8.35;2.72;;;28.50;59.60;;;;;;4995902;28;20226;-71
2022/06/18 14:00:30;;;;;;;6.57;2.50;;;28.60;59.20;;;;;;4998016;28;20348;-71
2022/06/18 14:03:22;;;;;;;9.20;2.80;;;28.60;58.90;;;;;;4994420;28;20659;-71
2022/06/18 14:06:14;;;;;;;4.88;2.30;;;28.20;60.60;;;;;;4996223;28;20218;-70
2022/06/18 14:09:06;;;;;;;7.75;2.58;;;28.30;60.20;;;;;;5000207;28;20288;-73
2022/06/18 14:12:01;;;;;;;6.60;2.50;;;28.20;60.40;;;;;;5001882;28;20785;-71
2022/06/18 14:15:01;;;;;;;5.45;2.67;;;27.90;61.20;;;;;;4998453;28;20222;-72
2022/06/18 14:17:56;;;;;;;3.95;2.67;;;27.80;62.30;;;;;;5000100;28;20246;-73
2022/06/18 14:20:55;;;;;;;4.22;2.72;;;27.70;61.80;;;;;;4995263;28;20226;-72
2022/06/18 14:23:54;;;;;;;6.80;3.10;;;27.60;62.60;;;;;;4994580;28;20222;-74
2022/06/18 14:26:46;;;;;;;6.97;3.20;;;27.50;65.00;;;;;;4998617;28;20226;-73
2022/06/18 14:29:42;;;;;;;2.95;2.72;;;27.50;64.00;;;;;;4997308;28;20226;-72
2022/06/18 14:32:48;;;;;;;4.30;2.90;;;27.30;64.40;;;;;;4997119;28;20229;-72
2022/06/18 14:35:46;;;;;;;6.25;3.17;;;27.30;64.80;;;;;;4993970;28;20254;-71
2022/06/18 14:38:39;;;;;;;9.77;2.75;;;27.30;64.00;;;;;;5012692;28;20248;-70
2022/06/18 14:41:38;;;;;;;3.00;2.60;;;27.20;64.20;;;;;;5000658;28;20223;-72
2022/06/18 14:44:56;;;;;;;4.32;2.78;;;27.30;64.40;;;;;;5000823;28;20237;-72
2022/06/18 14:48:23;;;;;;;5.95;2.63;;;27.20;64.60;;;;;;4998250;28;20229;-71
2022/06/18 14:51:37;;;;;;;3.50;2.60;;;27.20;64.50;;;;;;5013505;28;20634;-72
2022/06/18 14:54:53;;;;;;;4.90;3.05;;;27.20;66.80;;;;;;5015416;28;20222;-71
2022/06/18 14:58:14;;;;;;;3.95;2.88;;;27.20;64.30;;;;;;5006329;28;20226;-72
2022/06/18 15:01:09;;;;;;;3.85;2.47;;;27.20;63.90;;;;;;5004741;28;20226;-71
2022/06/18 15:04:11;;;;;;;4.53;2.60;;;27.20;63.60;;;;;;4997157;28;20226;-72
2022/06/18 15:07:06;;;;;;;5.80;3.67;;;27.20;63.00;;;;;;4999092;28;20784;-69
2022/06/18 15:09:54;;;;;;;6.53;3.20;;;27.20;64.50;;;;;;5003979;28;20218;-71
2022/06/18 15:12:43;;;;;;;7.03;3.38;;;27.10;65.50;;;;;;5001920;28;20226;-75
2022/06/18 15:15:46;;;;;;;6.82;3.15;;;27.10;66.80;;;;;;5004602;28;20241;-72
2022/06/18 15:18:48;;;;;;;3.50;3.10;;;27.10;64.90;;;;;;4996927;28;20430;-72
2022/06/18 15:21:49;;;;;;;39.20;4.07;;;27.10;65.00;;;;;;5005172;28;20846;-71
2022/06/18 15:27:55;;;;;;;5.30;3.42;;;27.00;66.50;;;;;;5003379;28;20228;-72
2022/06/18 15:30:47;;;;;;;6.28;3.50;;;26.90;67.60;;;;;;4998610;28;20361;-72